sensor_id;sensor_type;location;lat;lon;timestamp;temperature;humidity
8711;DHT22;4392;47.400;8.062;2023-05-23T00:01:05;21.20;96.40
8711;DHT22;4392;47.400;8.062;2023-05-23T00:03:32;21.20;96.20
8711;DHT22;4392;47.400;8.062;2023-05-23T00:06:05;21.10;96.50
8711;DHT22;4392;47.400;8.062;2023-05-23T00:08:31;21.00;97.30
8711;DHT22;4392;47.400;8.062;2023-05-23T00:11:02;20.90;97.60
8711;DHT22;4392;47.400;8.062;2023-05-23T00:13:27;20.90;98.20
8711;DHT22;4392;47.400;8.062;2023-05-23T00:15:55;20.90;98.90
8711;DHT22;4392;47.400;8.062;2023-05-23T00:18:21;20.90;99.00
8711;DHT22;4392;47.400;8.062;2023-05-23T00:20:51;20.90;99.00
8711;DHT22;4392;47.400;8.062;2023-05-23T00:23:17;20.90;99.00
8711;DHT22;4392;47.400;8.062;2023-05-23T00:25:49;20.90;99.40
8711;DHT22;4392;47.400;8.062;2023-05-23T00:28:18;20.80;99.80
8711;DHT22;4392;47.400;8.062;2023-05-23T00:30:44;20.80;99.90
8711;DHT22;4392;47.400;8.062;2023-05-23T00:33:18;20.80;99.90
8711;DHT22;4392;47.400;8.062;2023-05-23T00:35:47;20.80;99.90
8711;DHT22;4392;47.400;8.062;2023-05-23T00:38:20;20.70;99.90
8711;DHT22;4392;47.400;8.062;2023-05-23T00:40:46;20.70;99.90
8711;DHT22;4392;47.400;8.062;2023-05-23T00:43:16;20.70;99.90
8711;DHT22;4392;47.400;8.062;2023-05-23T00:45:42;20.80;99.90
8711;DHT22;4392;47.400;8.062;2023-05-23T00:48:10;20.70;99.90
8711;DHT22;4392;47.400;8.062;2023-05-23T00:50:41;20.70;99.90
8711;DHT22;4392;47.400;8.062;2023-05-23T00:53:07;20.70;99.90
8711;DHT22;4392;47.400;8.062;2023-05-23T00:55:35;20.70;99.90
8711;DHT22;4392;47.400;8.062;2023-05-23T00:58:06;20.60;99.90
8711;DHT22;4392;47.400;8.062;2023-05-23T01:00:33;20.60;99.90
8711;DHT22;4392;47.400;8.062;2023-05-23T01:03:00;20.60;99.90
8711;DHT22;4392;47.400;8.062;2023-05-23T01:05:26;20.60;99.90
8711;DHT22;4392;47.400;8.062;2023-05-23T01:07:56;20.60;99.90
8711;DHT22;4392;47.400;8.062;2023-05-23T01:10:26;20.60;99.90
8711;DHT22;4392;47.400;8.062;2023-05-23T01:18:28;20.60;99.90
8711;DHT22;4392;47.400;8.062;2023-05-23T01:21:14;20.60;99.90
8711;DHT22;4392;47.400;8.062;2023-05-23T01:27:18;20.60;99.90
8711;DHT22;4392;47.400;8.062;2023-05-23T01:29:46;20.60;99.90
8711;DHT22;4392;47.400;8.062;2023-05-23T01:32:18;20.60;99.90
8711;DHT22;4392;47.400;8.062;2023-05-23T01:34:47;20.50;99.90
8711;DHT22;4392;47.400;8.062;2023-05-23T01:37:14;20.50;99.90
8711;DHT22;4392;47.400;8.062;2023-05-23T01:39:43;20.50;99.90
8711;DHT22;4392;47.400;8.062;2023-05-23T01:42:08;20.40;99.90
8711;DHT22;4392;47.400;8.062;2023-05-23T01:44:35;20.40;99.90
8711;DHT22;4392;47.400;8.062;2023-05-23T01:47:07;20.30;99.90
8711;DHT22;4392;47.400;8.062;2023-05-23T01:49:38;20.30;99.90
8711;DHT22;4392;47.400;8.062;2023-05-23T01:52:05;20.30;99.90
8711;DHT22;4392;47.400;8.062;2023-05-23T01:54:34;20.30;99.90
8711;DHT22;4392;47.400;8.062;2023-05-23T01:57:10;20.30;99.90
8711;DHT22;4392;47.400;8.062;2023-05-23T01:59:36;20.30;99.90
8711;DHT22;4392;47.400;8.062;2023-05-23T02:02:07;20.20;99.90
8711;DHT22;4392;47.400;8.062;2023-05-23T02:04:33;20.20;99.90
8711;DHT22;4392;47.400;8.062;2023-05-23T02:06:59;20.20;99.90
8711;DHT22;4392;47.400;8.062;2023-05-23T02:09:25;20.20;99.90
8711;DHT22;4392;47.400;8.062;2023-05-23T02:11:53;20.20;99.90
8711;DHT22;4392;47.400;8.062;2023-05-23T02:14:20;20.20;99.90
8711;DHT22;4392;47.400;8.062;2023-05-23T02:16:45;20.20;99.90
8711;DHT22;4392;47.400;8.062;2023-05-23T02:19:11;20.20;99.90
8711;DHT22;4392;47.400;8.062;2023-05-23T02:21:37;20.20;99.90
8711;DHT22;4392;47.400;8.062;2023-05-23T02:24:07;20.20;99.90
8711;DHT22;4392;47.400;8.062;2023-05-23T02:26:32;20.20;99.90
8711;DHT22;4392;47.400;8.062;2023-05-23T02:28:58;20.20;99.90
8711;DHT22;4392;47.400;8.062;2023-05-23T02:31:25;20.20;99.90
8711;DHT22;4392;47.400;8.062;2023-05-23T02:33:58;20.20;99.90
8711;DHT22;4392;47.400;8.062;2023-05-23T02:36:23;20.00;99.90
8711;DHT22;4392;47.400;8.062;2023-05-23T02:38:49;20.10;99.90
8711;DHT22;4392;47.400;8.062;2023-05-23T02:41:15;20.10;99.90
8711;DHT22;4392;47.400;8.062;2023-05-23T02:43:40;20.00;99.90
8711;DHT22;4392;47.400;8.062;2023-05-23T02:46:12;19.90;99.90
8711;DHT22;4392;47.400;8.062;2023-05-23T02:48:38;20.00;99.90
8711;DHT22;4392;47.400;8.062;2023-05-23T02:51:03;20.00;99.90
8711;DHT22;4392;47.400;8.062;2023-05-23T02:53:32;20.00;99.90
8711;DHT22;4392;47.400;8.062;2023-05-23T02:55:58;20.00;99.90
8711;DHT22;4392;47.400;8.062;2023-05-23T02:58:26;20.00;99.90
8711;DHT22;4392;47.400;8.062;2023-05-23T03:00:52;20.00;99.90
8711;DHT22;4392;47.400;8.062;2023-05-23T03:03:17;20.00;99.90
8711;DHT22;4392;47.400;8.062;2023-05-23T03:05:47;20.00;99.90
8711;DHT22;4392;47.400;8.062;2023-05-23T03:08:13;20.00;99.90
8711;DHT22;4392;47.400;8.062;2023-05-23T03:10:39;20.00;99.90
8711;DHT22;4392;47.400;8.062;2023-05-23T03:13:04;20.00;99.90
8711;DHT22;4392;47.400;8.062;2023-05-23T03:15:39;20.00;99.90
8711;DHT22;4392;47.400;8.062;2023-05-23T03:18:05;20.00;99.90
8711;DHT22;4392;47.400;8.062;2023-05-23T03:20:30;19.90;99.90
8711;DHT22;4392;47.400;8.062;2023-05-23T03:23:01;19.80;99.90
8711;DHT22;4392;47.400;8.062;2023-05-23T03:25:27;19.80;99.90
8711;DHT22;4392;47.400;8.062;2023-05-23T03:27:53;19.80;99.90
8711;DHT22;4392;47.400;8.062;2023-05-23T03:30:19;19.80;99.90
8711;DHT22;4392;47.400;8.062;2023-05-23T03:32:51;19.80;99.90
8711;DHT22;4392;47.400;8.062;2023-05-23T03:35:18;19.80;99.90
8711;DHT22;4392;47.400;8.062;2023-05-23T03:37:43;19.70;99.90
8711;DHT22;4392;47.400;8.062;2023-05-23T03:40:15;19.70;99.90
8711;DHT22;4392;47.400;8.062;2023-05-23T03:42:41;19.70;99.90
8711;DHT22;4392;47.400;8.062;2023-05-23T03:45:07;19.70;99.90
8711;DHT22;4392;47.400;8.062;2023-05-23T03:47:33;19.70;99.90
8711;DHT22;4392;47.400;8.062;2023-05-23T03:49:58;19.70;99.90
8711;DHT22;4392;47.400;8.062;2023-05-23T03:52:28;19.70;99.90
8711;DHT22;4392;47.400;8.062;2023-05-23T03:54:54;19.70;99.90
8711;DHT22;4392;47.400;8.062;2023-05-23T03:57:22;19.60;99.90
8711;DHT22;4392;47.400;8.062;2023-05-23T03:59:53;19.60;99.90
8711;DHT22;4392;47.400;8.062;2023-05-23T04:02:20;19.60;99.90
8711;DHT22;4392;47.400;8.062;2023-05-23T04:04:46;19.50;99.90
8711;DHT22;4392;47.400;8.062;2023-05-23T04:07:15;19.50;99.90
8711;DHT22;4392;47.400;8.062;2023-05-23T04:09:41;19.50;99.90
8711;DHT22;4392;47.400;8.062;2023-05-23T04:12:07;19.50;99.90
8711;DHT22;4392;47.400;8.062;2023-05-23T04:14:34;19.60;99.90
8711;DHT22;4392;47.400;8.062;2023-05-23T04:17:11;19.60;99.90
8711;DHT22;4392;47.400;8.062;2023-05-23T04:19:36;19.60;99.90
8711;DHT22;4392;47.400;8.062;2023-05-23T04:22:05;19.60;99.90
8711;DHT22;4392;47.400;8.062;2023-05-23T04:24:31;19.60;99.90
8711;DHT22;4392;47.400;8.062;2023-05-23T04:26:56;19.70;99.90
8711;DHT22;4392;47.400;8.062;2023-05-23T04:29:24;19.70;99.90
8711;DHT22;4392;47.400;8.062;2023-05-23T04:31:52;19.70;99.90
8711;DHT22;4392;47.400;8.062;2023-05-23T04:34:19;19.70;99.90
8711;DHT22;4392;47.400;8.062;2023-05-23T04:36:47;19.70;99.90
8711;DHT22;4392;47.400;8.062;2023-05-23T04:39:15;19.70;99.90
8711;DHT22;4392;47.400;8.062;2023-05-23T04:41:44;19.70;99.90
8711;DHT22;4392;47.400;8.062;2023-05-23T04:44:10;19.70;99.90
8711;DHT22;4392;47.400;8.062;2023-05-23T04:46:36;19.80;99.90
8711;DHT22;4392;47.400;8.062;2023-05-23T04:49:02;19.80;99.90
8711;DHT22;4392;47.400;8.062;2023-05-23T04:51:32;19.70;99.90
8711;DHT22;4392;47.400;8.062;2023-05-23T04:53:58;19.70;99.90
8711;DHT22;4392;47.400;8.062;2023-05-23T04:56:24;19.70;99.90
8711;DHT22;4392;47.400;8.062;2023-05-23T04:58:52;19.80;99.90
8711;DHT22;4392;47.400;8.062;2023-05-23T05:01:22;19.70;99.90
8711;DHT22;4392;47.400;8.062;2023-05-23T05:03:51;19.80;99.90
8711;DHT22;4392;47.400;8.062;2023-05-23T05:06:17;19.80;99.90
8711;DHT22;4392;47.400;8.062;2023-05-23T05:08:47;19.80;99.90
8711;DHT22;4392;47.400;8.062;2023-05-23T05:11:13;19.80;99.90
8711;DHT22;4392;47.400;8.062;2023-05-23T05:13:38;19.90;99.90
8711;DHT22;4392;47.400;8.062;2023-05-23T05:16:05;19.90;99.90
8711;DHT22;4392;47.400;8.062;2023-05-23T05:18:31;20.00;99.90
8711;DHT22;4392;47.400;8.062;2023-05-23T05:20:59;20.00;99.90
8711;DHT22;4392;47.400;8.062;2023-05-23T05:23:29;19.90;99.90
8711;DHT22;4392;47.400;8.062;2023-05-23T05:25:56;20.00;99.90
8711;DHT22;4392;47.400;8.062;2023-05-23T05:28:26;20.00;99.90
8711;DHT22;4392;47.400;8.062;2023-05-23T05:30:52;19.90;99.90
8711;DHT22;4392;47.400;8.062;2023-05-23T05:33:19;20.00;99.90
8711;DHT22;4392;47.400;8.062;2023-05-23T05:35:51;20.00;99.90
8711;DHT22;4392;47.400;8.062;2023-05-23T05:38:16;20.00;99.90
8711;DHT22;4392;47.400;8.062;2023-05-23T05:40:45;19.90;99.90
8711;DHT22;4392;47.400;8.062;2023-05-23T05:43:10;20.00;99.90
8711;DHT22;4392;47.400;8.062;2023-05-23T05:45:41;20.00;99.90
8711;DHT22;4392;47.400;8.062;2023-05-23T05:48:09;20.00;99.90
8711;DHT22;4392;47.400;8.062;2023-05-23T05:50:36;20.00;99.90
8711;DHT22;4392;47.400;8.062;2023-05-23T05:53:08;20.00;99.90
8711;DHT22;4392;47.400;8.062;2023-05-23T05:55:34;20.00;99.90
8711;DHT22;4392;47.400;8.062;2023-05-23T05:58:00;20.00;99.90
8711;DHT22;4392;47.400;8.062;2023-05-23T06:00:25;20.00;99.90
8711;DHT22;4392;47.400;8.062;2023-05-23T06:02:54;19.90;99.90
8711;DHT22;4392;47.400;8.062;2023-05-23T06:05:22;19.90;99.90
8711;DHT22;4392;47.400;8.062;2023-05-23T06:07:57;20.10;99.90
8711;DHT22;4392;47.400;8.062;2023-05-23T06:10:25;20.30;99.90
8711;DHT22;4392;47.400;8.062;2023-05-23T06:12:54;20.50;99.90
8711;DHT22;4392;47.400;8.062;2023-05-23T06:15:20;20.60;99.90
8711;DHT22;4392;47.400;8.062;2023-05-23T06:17:46;20.60;99.90
8711;DHT22;4392;47.400;8.062;2023-05-23T06:20:16;20.70;99.90
8711;DHT22;4392;47.400;8.062;2023-05-23T06:22:44;20.70;99.90
8711;DHT22;4392;47.400;8.062;2023-05-23T06:25:11;20.80;99.90
8711;DHT22;4392;47.400;8.062;2023-05-23T06:27:37;20.90;99.90
8711;DHT22;4392;47.400;8.062;2023-05-23T06:30:04;20.80;99.90
8711;DHT22;4392;47.400;8.062;2023-05-23T06:32:37;20.70;99.90
8711;DHT22;4392;47.400;8.062;2023-05-23T06:35:03;20.60;99.90
8711;DHT22;4392;47.400;8.062;2023-05-23T06:37:31;20.60;99.90
8711;DHT22;4392;47.400;8.062;2023-05-23T06:40:05;20.60;99.90
8711;DHT22;4392;47.400;8.062;2023-05-23T06:42:31;20.50;99.90
8711;DHT22;4392;47.400;8.062;2023-05-23T06:44:57;20.50;99.90
8711;DHT22;4392;47.400;8.062;2023-05-23T06:47:22;20.50;99.90
8711;DHT22;4392;47.400;8.062;2023-05-23T06:49:48;20.50;99.90
8711;DHT22;4392;47.400;8.062;2023-05-23T06:52:17;20.60;99.90
8711;DHT22;4392;47.400;8.062;2023-05-23T06:54:43;20.60;99.90
8711;DHT22;4392;47.400;8.062;2023-05-23T06:57:08;20.60;99.90
8711;DHT22;4392;47.400;8.062;2023-05-23T06:59:36;20.60;99.90
8711;DHT22;4392;47.400;8.062;2023-05-23T07:02:06;20.70;99.90
8711;DHT22;4392;47.400;8.062;2023-05-23T07:04:32;20.70;99.90
8711;DHT22;4392;47.400;8.062;2023-05-23T07:06:58;20.80;99.90
8711;DHT22;4392;47.400;8.062;2023-05-23T07:09:23;20.80;99.90
8711;DHT22;4392;47.400;8.062;2023-05-23T07:11:55;20.80;99.90
8711;DHT22;4392;47.400;8.062;2023-05-23T07:14:21;20.90;99.90
8711;DHT22;4392;47.400;8.062;2023-05-23T07:16:46;20.90;99.90
8711;DHT22;4392;47.400;8.062;2023-05-23T07:19:12;21.00;99.90
8711;DHT22;4392;47.400;8.062;2023-05-23T07:21:41;21.00;99.90
8711;DHT22;4392;47.400;8.062;2023-05-23T07:24:07;21.00;99.90
8711;DHT22;4392;47.400;8.062;2023-05-23T07:26:33;21.00;99.90
8711;DHT22;4392;47.400;8.062;2023-05-23T07:29:01;21.10;99.90
8711;DHT22;4392;47.400;8.062;2023-05-23T07:31:33;21.20;99.90
8711;DHT22;4392;47.400;8.062;2023-05-23T07:34:04;21.30;99.90
8711;DHT22;4392;47.400;8.062;2023-05-23T07:36:31;21.30;99.90
8711;DHT22;4392;47.400;8.062;2023-05-23T07:38:59;21.20;99.90
8711;DHT22;4392;47.400;8.062;2023-05-23T07:41:25;21.10;99.90
8711;DHT22;4392;47.400;8.062;2023-05-23T07:43:51;21.00;99.90
8711;DHT22;4392;47.400;8.062;2023-05-23T07:46:26;21.00;99.90
8711;DHT22;4392;47.400;8.062;2023-05-23T07:48:52;21.20;99.90
8711;DHT22;4392;47.400;8.062;2023-05-23T07:51:19;21.20;99.90
8711;DHT22;4392;47.400;8.062;2023-05-23T07:53:46;21.20;99.90
8711;DHT22;4392;47.400;8.062;2023-05-23T07:56:12;21.20;99.90
8711;DHT22;4392;47.400;8.062;2023-05-23T07:58:40;21.20;99.90
8711;DHT22;4392;47.400;8.062;2023-05-23T08:01:06;21.10;99.90
8711;DHT22;4392;47.400;8.062;2023-05-23T08:03:32;21.20;99.90
8711;DHT22;4392;47.400;8.062;2023-05-23T08:05:58;21.20;99.90
8711;DHT22;4392;47.400;8.062;2023-05-23T08:08:23;21.20;99.90
8711;DHT22;4392;47.400;8.062;2023-05-23T08:10:55;21.20;99.90
8711;DHT22;4392;47.400;8.062;2023-05-23T08:13:21;21.20;99.90
8711;DHT22;4392;47.400;8.062;2023-05-23T08:15:46;21.30;99.90
8711;DHT22;4392;47.400;8.062;2023-05-23T08:18:12;21.30;99.90
8711;DHT22;4392;47.400;8.062;2023-05-23T08:20:43;21.30;99.90
8711;DHT22;4392;47.400;8.062;2023-05-23T08:23:11;21.40;99.90
8711;DHT22;4392;47.400;8.062;2023-05-23T08:25:45;21.40;99.90
8711;DHT22;4392;47.400;8.062;2023-05-23T08:28:11;21.30;99.90
8711;DHT22;4392;47.400;8.062;2023-05-23T08:30:39;21.30;99.90
8711;DHT22;4392;47.400;8.062;2023-05-23T08:33:09;21.20;99.90
8711;DHT22;4392;47.400;8.062;2023-05-23T08:35:35;21.10;99.90
8711;DHT22;4392;47.400;8.062;2023-05-23T08:38:03;21.00;99.90
8711;DHT22;4392;47.400;8.062;2023-05-23T08:40:35;21.10;99.90
8711;DHT22;4392;47.400;8.062;2023-05-23T08:43:06;21.20;99.90
8711;DHT22;4392;47.400;8.062;2023-05-23T08:45:34;21.20;99.90
8711;DHT22;4392;47.400;8.062;2023-05-23T08:48:00;21.20;99.90
8711;DHT22;4392;47.400;8.062;2023-05-23T08:50:29;21.10;99.90
8711;DHT22;4392;47.400;8.062;2023-05-23T08:52:58;21.30;99.90
8711;DHT22;4392;47.400;8.062;2023-05-23T08:55:26;21.50;99.90
8711;DHT22;4392;47.400;8.062;2023-05-23T08:57:54;21.70;99.90
8711;DHT22;4392;47.400;8.062;2023-05-23T09:00:26;21.90;99.90
8711;DHT22;4392;47.400;8.062;2023-05-23T09:02:55;21.90;99.90
8711;DHT22;4392;47.400;8.062;2023-05-23T09:05:22;21.90;99.90
8711;DHT22;4392;47.400;8.062;2023-05-23T09:07:48;21.90;99.90
8711;DHT22;4392;47.400;8.062;2023-05-23T09:10:16;21.80;99.90
8711;DHT22;4392;47.400;8.062;2023-05-23T09:12:48;21.80;99.90
8711;DHT22;4392;47.400;8.062;2023-05-23T09:15:16;22.00;99.90
8711;DHT22;4392;47.400;8.062;2023-05-23T09:17:43;22.10;99.90
8711;DHT22;4392;47.400;8.062;2023-05-23T09:20:16;22.10;99.90
8711;DHT22;4392;47.400;8.062;2023-05-23T09:22:49;22.10;99.90
8711;DHT22;4392;47.400;8.062;2023-05-23T09:25:15;22.00;99.90
8711;DHT22;4392;47.400;8.062;2023-05-23T09:27:43;21.90;99.90
8711;DHT22;4392;47.400;8.062;2023-05-23T09:30:16;21.90;99.90
8711;DHT22;4392;47.400;8.062;2023-05-23T09:32:59;21.90;99.90
8711;DHT22;4392;47.400;8.062;2023-05-23T09:35:29;22.00;99.90
8711;DHT22;4392;47.400;8.062;2023-05-23T09:38:00;22.00;99.90
8711;DHT22;4392;47.400;8.062;2023-05-23T09:40:32;22.10;99.90
8711;DHT22;4392;47.400;8.062;2023-05-23T09:43:02;22.20;99.90
8711;DHT22;4392;47.400;8.062;2023-05-23T09:45:30;22.10;99.90
8711;DHT22;4392;47.400;8.062;2023-05-23T09:47:56;22.00;99.90
8711;DHT22;4392;47.400;8.062;2023-05-23T09:50:22;22.00;99.90
8711;DHT22;4392;47.400;8.062;2023-05-23T09:52:53;22.00;99.90
8711;DHT22;4392;47.400;8.062;2023-05-23T09:55:19;22.10;99.90
8711;DHT22;4392;47.400;8.062;2023-05-23T09:57:52;22.10;99.90
8711;DHT22;4392;47.400;8.062;2023-05-23T10:00:24;22.30;99.90
8711;DHT22;4392;47.400;8.062;2023-05-23T10:03:10;22.30;99.90
8711;DHT22;4392;47.400;8.062;2023-05-23T10:05:58;22.20;99.90
8711;DHT22;4392;47.400;8.062;2023-05-23T10:08:47;22.20;99.90
8711;DHT22;4392;47.400;8.062;2023-05-23T10:13:54;22.30;99.90
8711;DHT22;4392;47.400;8.062;2023-05-23T10:21:59;22.00;99.90
8711;DHT22;4392;47.400;8.062;2023-05-23T10:24:28;22.10;99.90
8711;DHT22;4392;47.400;8.062;2023-05-23T10:26:54;22.10;99.90
8711;DHT22;4392;47.400;8.062;2023-05-23T10:29:24;22.10;99.90
8711;DHT22;4392;47.400;8.062;2023-05-23T10:31:52;22.10;99.90
8711;DHT22;4392;47.400;8.062;2023-05-23T10:37:34;21.90;99.90
8711;DHT22;4392;47.400;8.062;2023-05-23T10:40:15;21.90;99.90
8711;DHT22;4392;47.400;8.062;2023-05-23T10:42:56;21.90;99.90
8711;DHT22;4392;47.400;8.062;2023-05-23T10:45:26;22.00;99.90
8711;DHT22;4392;47.400;8.062;2023-05-23T10:47:55;21.90;99.90
8711;DHT22;4392;47.400;8.062;2023-05-23T10:50:35;21.90;99.90
8711;DHT22;4392;47.400;8.062;2023-05-23T10:53:21;21.90;99.90
8711;DHT22;4392;47.400;8.062;2023-05-23T10:55:48;21.90;99.90
8711;DHT22;4392;47.400;8.062;2023-05-23T10:58:20;22.10;99.90
8711;DHT22;4392;47.400;8.062;2023-05-23T11:01:01;22.00;99.90
8711;DHT22;4392;47.400;8.062;2023-05-23T11:09:16;22.00;99.90
8711;DHT22;4392;47.400;8.062;2023-05-23T11:11:51;22.00;99.90
8711;DHT22;4392;47.400;8.062;2023-05-23T11:16:59;22.10;98.80
8711;DHT22;4392;47.400;8.062;2023-05-23T11:19:26;22.10;97.60
8711;DHT22;4392;47.400;8.062;2023-05-23T11:22:00;22.00;97.50
8711;DHT22;4392;47.400;8.062;2023-05-23T11:24:49;22.00;97.80
8711;DHT22;4392;47.400;8.062;2023-05-23T11:27:16;22.20;97.50
8711;DHT22;4392;47.400;8.062;2023-05-23T11:30:14;22.30;97.60
8711;DHT22;4392;47.400;8.062;2023-05-23T11:32:51;22.40;98.10
8711;DHT22;4392;47.400;8.062;2023-05-23T11:35:17;22.50;97.70
8711;DHT22;4392;47.400;8.062;2023-05-23T11:37:43;22.50;97.50
8711;DHT22;4392;47.400;8.062;2023-05-23T11:40:38;22.50;97.00
8711;DHT22;4392;47.400;8.062;2023-05-23T11:43:07;22.60;96.70
8711;DHT22;4392;47.400;8.062;2023-05-23T11:45:37;22.70;96.10
8711;DHT22;4392;47.400;8.062;2023-05-23T11:48:13;22.70;96.10
8711;DHT22;4392;47.400;8.062;2023-05-23T11:51:02;22.40;96.70
8711;DHT22;4392;47.400;8.062;2023-05-23T11:53:28;22.30;97.00
8711;DHT22;4392;47.400;8.062;2023-05-23T11:55:55;22.30;97.10
8711;DHT22;4392;47.400;8.062;2023-05-23T11:58:36;22.30;97.50
8711;DHT22;4392;47.400;8.062;2023-05-23T12:01:07;22.40;97.40
8711;DHT22;4392;47.400;8.062;2023-05-23T12:03:45;22.40;97.60
8711;DHT22;4392;47.400;8.062;2023-05-23T12:06:18;22.40;99.90
8711;DHT22;4392;47.400;8.062;2023-05-23T12:08:45;22.40;99.90
8711;DHT22;4392;47.400;8.062;2023-05-23T12:11:12;22.50;99.90
8711;DHT22;4392;47.400;8.062;2023-05-23T12:13:44;22.40;99.90
8711;DHT22;4392;47.400;8.062;2023-05-23T12:16:15;22.40;99.90
8711;DHT22;4392;47.400;8.062;2023-05-23T12:18:41;22.50;99.90
8711;DHT22;4392;47.400;8.062;2023-05-23T12:21:09;22.60;99.90
8711;DHT22;4392;47.400;8.062;2023-05-23T12:23:35;22.70;99.90
8711;DHT22;4392;47.400;8.062;2023-05-23T12:26:05;22.70;99.90
8711;DHT22;4392;47.400;8.062;2023-05-23T12:28:41;22.70;99.90
8711;DHT22;4392;47.400;8.062;2023-05-23T12:31:24;22.70;99.90
8711;DHT22;4392;47.400;8.062;2023-05-23T12:33:52;22.60;99.90
8711;DHT22;4392;47.400;8.062;2023-05-23T12:36:25;22.60;99.90
8711;DHT22;4392;47.400;8.062;2023-05-23T12:39:01;22.50;99.90
8711;DHT22;4392;47.400;8.062;2023-05-23T12:41:33;22.50;99.90
8711;DHT22;4392;47.400;8.062;2023-05-23T12:44:00;22.40;99.90
8711;DHT22;4392;47.400;8.062;2023-05-23T12:46:30;22.40;99.90
8711;DHT22;4392;47.400;8.062;2023-05-23T12:48:55;22.30;99.90
8711;DHT22;4392;47.400;8.062;2023-05-23T12:51:24;22.30;99.90
8711;DHT22;4392;47.400;8.062;2023-05-23T12:53:54;22.30;99.90
8711;DHT22;4392;47.400;8.062;2023-05-23T12:56:22;22.30;99.90
8711;DHT22;4392;47.400;8.062;2023-05-23T12:58:48;22.30;99.90
8711;DHT22;4392;47.400;8.062;2023-05-23T13:01:14;22.30;99.90
8711;DHT22;4392;47.400;8.062;2023-05-23T13:03:43;22.30;99.90
8711;DHT22;4392;47.400;8.062;2023-05-23T13:06:11;22.30;99.90
8711;DHT22;4392;47.400;8.062;2023-05-23T13:08:37;22.40;99.90
8711;DHT22;4392;47.400;8.062;2023-05-23T13:11:09;22.40;99.90
8711;DHT22;4392;47.400;8.062;2023-05-23T13:13:36;22.50;99.90
8711;DHT22;4392;47.400;8.062;2023-05-23T13:16:01;22.60;99.90
8711;DHT22;4392;47.400;8.062;2023-05-23T13:18:27;22.70;99.90
8711;DHT22;4392;47.400;8.062;2023-05-23T13:20:53;22.70;99.90
8711;DHT22;4392;47.400;8.062;2023-05-23T13:23:24;22.70;99.90
8711;DHT22;4392;47.400;8.062;2023-05-23T13:25:51;22.80;99.90
8711;DHT22;4392;47.400;8.062;2023-05-23T13:28:17;22.70;99.90
8711;DHT22;4392;47.400;8.062;2023-05-23T13:30:46;22.60;99.90
8711;DHT22;4392;47.400;8.062;2023-05-23T13:33:12;22.70;99.90
8711;DHT22;4392;47.400;8.062;2023-05-23T13:35:38;22.80;99.90
8711;DHT22;4392;47.400;8.062;2023-05-23T13:38:03;22.80;99.90
8711;DHT22;4392;47.400;8.062;2023-05-23T13:40:29;22.90;99.90
8711;DHT22;4392;47.400;8.062;2023-05-23T13:42:59;22.80;99.90
8711;DHT22;4392;47.400;8.062;2023-05-23T13:45:25;22.80;99.90
8711;DHT22;4392;47.400;8.062;2023-05-23T13:47:53;22.80;99.90
8711;DHT22;4392;47.400;8.062;2023-05-23T13:50:18;22.70;99.90
8711;DHT22;4392;47.400;8.062;2023-05-23T13:52:48;22.80;99.90
8711;DHT22;4392;47.400;8.062;2023-05-23T13:55:16;23.00;99.90
8711;DHT22;4392;47.400;8.062;2023-05-23T13:57:43;23.30;99.50
8711;DHT22;4392;47.400;8.062;2023-05-23T14:00:15;23.60;98.40
8711;DHT22;4392;47.400;8.062;2023-05-23T14:02:41;23.90;97.50
8711;DHT22;4392;47.400;8.062;2023-05-23T14:05:08;23.90;97.10
8711;DHT22;4392;47.400;8.062;2023-05-23T14:07:36;23.80;97.20
8711;DHT22;4392;47.400;8.062;2023-05-23T14:10:03;23.80;97.60
8711;DHT22;4392;47.400;8.062;2023-05-23T14:12:29;23.90;97.10
8711;DHT22;4392;47.400;8.062;2023-05-23T14:14:55;24.00;96.70
8711;DHT22;4392;47.400;8.062;2023-05-23T14:17:26;23.90;97.20
8711;DHT22;4392;47.400;8.062;2023-05-23T14:19:52;23.80;97.00
8711;DHT22;4392;47.400;8.062;2023-05-23T14:22:18;23.80;96.70
8711;DHT22;4392;47.400;8.062;2023-05-23T14:24:43;23.90;96.90
8711;DHT22;4392;47.400;8.062;2023-05-23T14:27:09;23.80;97.20
8711;DHT22;4392;47.400;8.062;2023-05-23T14:29:41;23.80;97.70
8711;DHT22;4392;47.400;8.062;2023-05-23T14:32:15;23.70;97.80
8711;DHT22;4392;47.400;8.062;2023-05-23T14:34:41;23.60;97.90
8711;DHT22;4392;47.400;8.062;2023-05-23T14:37:06;23.60;98.30
8711;DHT22;4392;47.400;8.062;2023-05-23T14:39:32;23.50;98.80
8711;DHT22;4392;47.400;8.062;2023-05-23T14:41:58;23.50;99.80
8711;DHT22;4392;47.400;8.062;2023-05-23T14:44:24;23.60;99.90
8711;DHT22;4392;47.400;8.062;2023-05-23T14:46:53;23.60;99.90
8711;DHT22;4392;47.400;8.062;2023-05-23T14:49:19;23.50;99.90
8711;DHT22;4392;47.400;8.062;2023-05-23T14:51:45;23.50;99.90
8711;DHT22;4392;47.400;8.062;2023-05-23T14:54:10;23.60;99.90
8711;DHT22;4392;47.400;8.062;2023-05-23T14:56:36;23.70;99.90
8711;DHT22;4392;47.400;8.062;2023-05-23T14:59:06;23.70;99.90
8711;DHT22;4392;47.400;8.062;2023-05-23T15:01:38;23.70;99.90
8711;DHT22;4392;47.400;8.062;2023-05-23T15:04:07;23.70;99.90
8711;DHT22;4392;47.400;8.062;2023-05-23T15:06:36;23.80;99.90
8711;DHT22;4392;47.400;8.062;2023-05-23T15:09:09;23.80;99.90
8711;DHT22;4392;47.400;8.062;2023-05-23T15:11:37;23.90;99.90
8711;DHT22;4392;47.400;8.062;2023-05-23T15:14:10;24.20;99.90
8711;DHT22;4392;47.400;8.062;2023-05-23T15:16:35;24.40;99.90
8711;DHT22;4392;47.400;8.062;2023-05-23T15:19:09;24.40;99.00
8711;DHT22;4392;47.400;8.062;2023-05-23T15:21:35;24.30;99.70
8711;DHT22;4392;47.400;8.062;2023-05-23T15:24:01;24.10;99.90
8711;DHT22;4392;47.400;8.062;2023-05-23T15:26:30;24.00;99.90
8711;DHT22;4392;47.400;8.062;2023-05-23T15:28:58;23.90;99.90
8711;DHT22;4392;47.400;8.062;2023-05-23T15:31:24;23.90;99.90
8711;DHT22;4392;47.400;8.062;2023-05-23T15:33:49;23.80;99.90
8711;DHT22;4392;47.400;8.062;2023-05-23T15:36:15;23.80;99.90
8711;DHT22;4392;47.400;8.062;2023-05-23T15:38:47;23.80;99.90
8711;DHT22;4392;47.400;8.062;2023-05-23T15:41:13;23.70;99.90
8711;DHT22;4392;47.400;8.062;2023-05-23T15:43:41;23.60;99.90
8711;DHT22;4392;47.400;8.062;2023-05-23T15:46:06;23.50;99.90
8711;DHT22;4392;47.400;8.062;2023-05-23T15:48:34;23.60;99.90
8711;DHT22;4392;47.400;8.062;2023-05-23T15:51:00;23.50;99.90
8711;DHT22;4392;47.400;8.062;2023-05-23T15:53:26;23.40;99.90
8711;DHT22;4392;47.400;8.062;2023-05-23T15:55:51;23.30;98.80
8711;DHT22;4392;47.400;8.062;2023-05-23T15:58:25;22.80;98.00
8711;DHT22;4392;47.400;8.062;2023-05-23T16:00:53;22.70;98.30
8711;DHT22;4392;47.400;8.062;2023-05-23T16:03:21;22.70;98.90
8711;DHT22;4392;47.400;8.062;2023-05-23T16:05:48;22.60;98.80
8711;DHT22;4392;47.400;8.062;2023-05-23T16:08:18;22.30;99.60
8711;DHT22;4392;47.400;8.062;2023-05-23T16:10:43;22.10;99.80
8711;DHT22;4392;47.400;8.062;2023-05-23T16:13:09;22.40;99.90
8711;DHT22;4392;47.400;8.062;2023-05-23T16:15:35;22.60;99.90
8711;DHT22;4392;47.400;8.062;2023-05-23T16:18:01;22.70;99.50
8711;DHT22;4392;47.400;8.062;2023-05-23T16:20:28;22.70;97.60
8711;DHT22;4392;47.400;8.062;2023-05-23T16:23:00;22.60;98.60
8711;DHT22;4392;47.400;8.062;2023-05-23T16:25:25;22.70;98.50
8711;DHT22;4392;47.400;8.062;2023-05-23T16:27:51;22.50;98.40
8711;DHT22;4392;47.400;8.062;2023-05-23T16:30:20;22.50;98.40
8711;DHT22;4392;47.400;8.062;2023-05-23T16:32:46;22.50;98.20
8711;DHT22;4392;47.400;8.062;2023-05-23T16:35:12;22.50;98.70
8711;DHT22;4392;47.400;8.062;2023-05-23T16:37:37;22.30;99.40
8711;DHT22;4392;47.400;8.062;2023-05-23T16:40:04;22.00;99.90